Dallas, Texas
Traffic Map
Current Weather Conditions
Dallas, Texas
Few Clouds
Few Clouds
59°
Feels Like: 59°
Wind Chill: 59° Ceiling: Unl
Heat Index: 59° Visibility: 10mi
Dew Point: 53° Wind: 0mph
Humidity: 81% Direction: ° ()
Pressure: 30.01in Gusts: 0mph
Raw Report DataKDAL 280953Z 00000KT 10SM FEW300 15/12 A3001 RMK AO2 SLP158 T01500117 $
Traffic Incident Summary
Active as of:
Severity:
Category:
InformationThere was an issue retrieving the traffic information for this location. Please try a different location or try again shortly.
Advertisements
Track Severe Weather on mobile